createdAt,value
2023-01-03T12:08:14.455Z,98206.81
2023-01-03T12:10:44.219Z,98207.16
2023-01-03T12:13:16.579Z,98203.56
2023-01-03T12:15:56.493Z,98197.91
2023-01-03T12:18:36.780Z,98201.75
2023-01-03T12:21:20.616Z,98192.63
2023-01-03T12:24:00.337Z,98188.19
2023-01-03T12:26:29.995Z,98191.63
2023-01-03T12:29:05.694Z,98194.78
2023-01-03T12:32:06.087Z,98194.91
2023-01-03T12:34:42.003Z,98189.50
2023-01-03T12:37:21.493Z,98189.59
2023-01-03T12:39:57.747Z,98189.97
2023-01-03T12:42:34.142Z,98189.09
2023-01-03T12:45:29.629Z,98178.75
2023-01-03T12:48:13.620Z,98181.44
2023-01-03T12:50:46.067Z,98173.41
2023-01-03T12:53:19.168Z,98175.56
2023-01-03T12:56:01.292Z,98174.88
2023-01-03T12:58:49.811Z,98178.78
2023-01-03T13:01:20.932Z,98171.31
2023-01-03T13:04:22.979Z,98173.31
2023-01-03T13:07:03.931Z,98170.19
2023-01-03T13:09:37.822Z,98179.00
2023-01-03T13:12:11.909Z,98181.00
2023-01-03T13:14:56.071Z,98192.47
2023-01-03T13:17:27.901Z,98185.84
2023-01-03T13:20:13.217Z,98198.56
2023-01-03T13:22:50.782Z,98190.53
2023-01-03T13:25:34.189Z,98199.56
2023-01-03T13:28:09.327Z,98200.13
2023-01-03T13:30:38.818Z,98195.75
2023-01-03T13:33:11.493Z,98192.63
2023-01-03T13:35:47.011Z,98186.06
2023-01-03T13:38:24.607Z,98206.63
2023-01-03T13:43:50.265Z,98200.00
2023-01-03T13:46:26.533Z,98213.16
2023-01-03T13:49:05.388Z,98204.09
2023-01-03T13:51:41.201Z,98206.31
2023-01-03T13:54:10.749Z,98215.19
2023-01-03T13:56:43.641Z,98209.00
2023-01-03T13:59:28.249Z,98209.84
2023-01-03T14:02:04.141Z,98202.38
2023-01-03T14:05:03.243Z,98207.28
2023-01-03T14:08:13.057Z,98206.03
2023-01-03T14:10:59.541Z,98203.91
2023-01-03T14:13:47.073Z,98203.09
2023-01-03T14:16:25.818Z,98196.47
2023-01-03T14:19:02.077Z,98204.28
2023-01-03T14:22:04.841Z,98203.84
2023-01-03T14:24:59.117Z,98206.28
2023-01-03T14:27:46.535Z,98216.56
2023-01-03T14:30:22.524Z,98215.19
2023-01-03T14:32:49.542Z,98204.66
2023-01-03T14:36:06.746Z,98210.38
2023-01-03T14:38:35.586Z,98211.19
2023-01-03T14:41:03.276Z,98214.94
2023-01-03T14:43:32.980Z,98216.34
2023-01-03T14:46:08.076Z,98217.75
2023-01-03T14:48:34.772Z,98227.47
2023-01-03T14:51:06.145Z,98226.97
2023-01-03T14:53:38.855Z,98235.03
2023-01-03T14:56:07.022Z,98224.78
2023-01-03T14:58:38.403Z,98232.97
2023-01-03T15:01:08.370Z,98230.88
2023-01-03T15:03:37.904Z,98241.63
2023-01-03T15:06:16.877Z,98241.63
2023-01-03T15:08:45.079Z,98238.31
2023-01-03T15:11:14.148Z,98242.66
2023-01-03T15:13:50.608Z,98240.78
2023-01-03T15:16:33.165Z,98251.50
2023-01-03T15:19:21.473Z,98246.16
2023-01-03T15:21:48.768Z,98243.47
2023-01-03T15:24:19.296Z,98238.94
2023-01-03T15:26:51.463Z,98245.31
2023-01-03T15:29:21.014Z,98246.16
2023-01-03T17:29:24.709Z,98296.94
2023-01-03T17:31:51.356Z,98301.44
2023-01-03T17:34:23.239Z,98301.19
2023-01-03T17:36:50.894Z,98298.75
2023-01-03T17:39:17.823Z,98291.94
2023-01-03T17:42:03.186Z,98295.09
2023-01-03T17:44:30.198Z,98296.13
2023-01-03T17:47:34.009Z,98303.13
2023-01-03T17:50:01.219Z,98296.13
2023-01-03T17:52:34.631Z,98292.41
2023-01-03T17:55:02.657Z,98296.72
2023-01-03T17:57:29.292Z,98298.56
2023-01-03T17:59:56.233Z,98294.47
2023-01-03T18:02:25.579Z,98293.66
2023-01-03T18:07:39.505Z,98298.53
2023-01-03T18:10:07.690Z,98293.84
2023-01-03T18:12:34.499Z,98298.75
2023-01-03T18:15:01.327Z,98298.75
2023-01-03T18:17:29.243Z,98299.34
2023-01-03T18:19:57.365Z,98297.47
2023-01-03T18:22:25.036Z,98290.84
2023-01-03T18:24:52.931Z,98294.09
2023-01-03T18:27:22.978Z,98288.72
2023-01-03T18:29:50.023Z,98285.47
2023-01-03T18:32:27.368Z,98288.16
2023-01-03T18:34:54.301Z,98289.66
2023-01-03T18:37:24.206Z,98293.38
2023-01-03T18:39:51.889Z,98288.84
2023-01-03T18:42:37.112Z,98295.03
2023-01-03T18:45:04.097Z,98292.91
2023-01-03T18:47:30.755Z,98299.94
2023-01-03T18:49:57.446Z,98301.56
2023-01-03T18:52:26.963Z,98300.75
2023-01-03T18:54:54.304Z,98306.34
2023-01-03T18:57:22.433Z,98306.19
2023-01-03T18:59:51.965Z,98316.72
2023-01-03T19:02:20.945Z,98330.38
2023-01-03T19:04:51.578Z,98329.75
2023-01-03T19:07:34.304Z,98320.06
2023-01-03T19:10:02.686Z,98327.75
2023-01-03T19:12:37.496Z,98340.97
2023-01-03T19:15:16.278Z,98328.56
2023-01-03T19:17:43.074Z,98329.25
2023-01-03T19:20:10.234Z,98336.72
2023-01-03T19:22:39.205Z,98332.16
2023-01-03T19:25:09.316Z,98324.09
2023-01-03T19:27:40.477Z,98330.06
2023-01-03T19:30:16.649Z,98324.47
2023-01-03T19:32:48.678Z,98331.47
2023-01-03T19:35:15.972Z,98332.31
2023-01-03T19:37:42.716Z,98326.31
2023-01-03T19:40:14.319Z,98324.69
2023-01-03T19:42:50.613Z,98318.75
2023-01-03T19:45:27.467Z,98329.00
2023-01-03T19:47:58.166Z,98323.06
2023-01-03T19:50:30.446Z,98331.94
2023-01-03T19:52:57.537Z,98333.78
2023-01-03T19:55:30.175Z,98335.22
2023-01-03T19:57:59.866Z,98331.47
2023-01-03T20:00:29.571Z,98332.53
2023-01-03T20:02:58.421Z,98337.22
2023-01-03T20:05:30.656Z,98338.66
2023-01-03T20:07:57.267Z,98341.34
2023-01-03T20:10:26.347Z,98348.09
2023-01-03T20:12:56.987Z,98346.22
2023-01-03T20:15:27.791Z,98341.72
2023-01-03T20:17:55.161Z,98342.28
2023-01-03T20:20:24.180Z,98341.25
2023-01-03T20:23:06.756Z,98337.97
2023-01-03T20:25:35.587Z,98334.69
2023-01-03T20:28:02.536Z,98337.22
2023-01-03T20:30:31.417Z,98330.66
2023-01-03T20:32:58.531Z,98321.19
2023-01-03T20:38:17.363Z,98324.84
2023-01-03T20:40:43.976Z,98322.25
2023-01-03T20:43:14.728Z,98325.06
2023-01-03T20:45:44.381Z,98327.75
2023-01-03T20:48:21.266Z,98328.13
2023-01-03T20:50:52.020Z,98323.38
2023-01-03T20:53:25.842Z,98322.31
2023-01-03T20:55:53.323Z,98313.19
2023-01-03T20:58:27.927Z,98322.91
2023-01-03T21:01:01.922Z,98311.13
2023-01-03T21:03:31.240Z,98322.69
2023-01-03T21:05:59.229Z,98322.31
2023-01-03T21:08:44.860Z,98330.13
2023-01-03T21:11:12.479Z,98321.50
2023-01-03T21:13:39.072Z,98333.41
2023-01-03T21:16:37.065Z,98329.69
2023-01-03T21:19:06.421Z,98342.91
2023-01-03T21:21:33.974Z,98330.28
2023-01-03T21:24:01.833Z,98326.31
2023-01-03T21:26:28.530Z,98325.50
2023-01-03T21:28:55.922Z,98323.44
2023-01-03T21:31:23.196Z,98318.88
2023-01-03T21:33:50.610Z,98315.59
2023-01-03T21:36:24.704Z,98323.19
2023-01-03T21:38:51.963Z,98317.25
2023-01-03T21:41:29.967Z,98322.81
2023-01-03T21:43:58.300Z,98331.09
2023-01-03T21:46:25.957Z,98337.53
2023-01-03T21:48:54.525Z,98325.75
2023-01-03T21:51:34.984Z,98325.13
2023-01-03T21:54:09.607Z,98334.59
2023-01-03T21:56:45.402Z,98332.75
2023-01-03T21:59:14.746Z,98328.19
2023-01-03T22:02:01.210Z,98327.97
2023-01-03T22:04:28.269Z,98322.63
2023-01-03T22:07:00.904Z,98323.88
2023-01-03T22:09:47.663Z,98318.88
2023-01-03T22:12:15.797Z,98313.75
2023-01-03T22:14:42.644Z,98309.19
2023-01-03T22:17:09.363Z,98315.59
2023-01-03T22:19:36.320Z,98312.75
2023-01-03T22:22:02.969Z,98318.13
2023-01-03T22:24:30.434Z,98316.88
2023-01-03T22:26:57.369Z,98316.06
2023-01-03T22:29:23.959Z,98311.25
2023-01-03T22:31:50.769Z,98311.06
2023-01-03T22:34:17.589Z,98314.56
2023-01-03T22:36:44.198Z,98317.25
2023-01-03T22:39:11.025Z,98320.75
2023-01-03T22:41:37.597Z,98313.75
2023-01-03T22:44:04.226Z,98318.25
2023-01-03T22:46:31.962Z,98317.69
2023-01-03T22:48:58.784Z,98320.94
2023-01-03T22:51:25.665Z,98308.38
2023-01-03T22:53:52.491Z,98310.00
2023-01-03T22:56:19.121Z,98306.50
2023-01-03T22:58:46.902Z,98310.69
2023-01-03T23:01:17.492Z,98315.44
2023-01-03T23:03:46.486Z,98321.88
2023-01-03T23:06:18.905Z,98332.69
2023-01-03T23:08:50.418Z,98332.06
2023-01-03T23:11:38.049Z,98324.84
2023-01-03T23:14:08.708Z,98328.13
2023-01-03T23:16:35.544Z,98332.22
2023-01-03T23:19:03.776Z,98322.53
2023-01-03T23:21:30.346Z,98326.25
2023-01-03T23:23:57.186Z,98320.69
2023-01-03T23:26:24.131Z,98312.84
2023-01-03T23:28:55.410Z,98322.06
2023-01-03T23:31:22.198Z,98319.38
2023-01-03T23:33:49.221Z,98319.19
2023-01-03T23:36:17.175Z,98319.19
2023-01-03T23:38:44.028Z,98318.13
2023-01-03T23:41:10.752Z,98321.41
2023-01-03T23:43:38.022Z,98323.28
2023-01-03T23:46:05.966Z,98318.75
2023-01-03T23:48:33.320Z,98315.00
2023-01-03T23:51:08.111Z,98312.91
2023-01-03T23:53:40.588Z,98309.19
2023-01-03T23:56:11.129Z,98298.44
2023-01-03T23:58:37.823Z,98297.41
